TimePDT,TemperatureF,Dew PointF,Humidity,Sea Level PressureIn,VisibilityMPH,Wind Direction,Wind SpeedMPH,Gust SpeedMPH,PrecipitationIn,Events,Conditions,WindDirDegrees,DateUTC
12:58 AM,45.1,39.0,79,30.08,10.0,SW,8.1,-,N/A,,Clear,230,2013-06-14 07:58:00
1:58 AM,45.1,38.7,78,30.08,10.0,SSW,6.9,-,N/A,,Clear,210,2013-06-14 08:58:00
2:58 AM,44.1,39.7,85,30.08,10.0,South,6.9,-,N/A,,Partly Cloudy,180,2013-06-14 09:58:00
3:06 AM,44.6,39.2,81,30.07,10.0,South,6.9,-,N/A,,Mostly Cloudy,180,2013-06-14 10:06:00
3:23 AM,44.6,39.2,81,30.07,10.0,South,8.1,-,N/A,,Scattered Clouds,180,2013-06-14 10:23:00
3:32 AM,44.6,39.2,81,30.07,10.0,South,11.5,-,N/A,,Partly Cloudy,180,2013-06-14 10:32:00
3:39 AM,42.8,39.2,87,30.07,10.0,South,11.5,-,N/A,,Clear,180,2013-06-14 10:39:00
3:46 AM,42.8,39.2,87,30.07,10.0,South,11.5,-,N/A,,Clear,180,2013-06-14 10:46:00
3:58 AM,43.3,39.2,85,30.08,10.0,South,11.5,-,0.00,,Clear,180,2013-06-14 10:58:00
4:05 AM,42.8,39.2,87,30.07,10.0,South,12.7,-,N/A,,Clear,180,2013-06-14 11:05:00
4:48 AM,42.8,39.2,87,30.08,10.0,South,8.1,-,N/A,,Partly Cloudy,180,2013-06-14 11:48:00
4:58 AM,42.6,39.0,87,30.10,10.0,South,10.4,-,0.00,,Scattered Clouds,180,2013-06-14 11:58:00
4:59 AM,42.8,39.2,87,30.09,10.0,South,10.4,-,N/A,,Scattered Clouds,180,2013-06-14 11:59:00
5:12 AM,42.8,39.2,87,30.09,10.0,South,12.7,-,N/A,,Partly Cloudy,180,2013-06-14 12:12:00
5:25 AM,42.8,39.2,87,30.09,10.0,South,10.4,-,N/A,,Clear,180,2013-06-14 12:25:00
5:39 AM,42.8,39.2,87,30.09,10.0,South,12.7,-,N/A,,Clear,180,2013-06-14 12:39:00
5:58 AM,42.8,39.9,90,30.12,10.0,South,13.8,19.6,0.00,,Clear,180,2013-06-14 12:58:00
6:10 AM,42.8,41.0,93,30.10,10.0,South,11.5,19.6,N/A,,Clear,180,2013-06-14 13:10:00
6:58 AM,45.0,40.8,85,30.13,10.0,South,10.4,-,0.00,,Mostly Cloudy,180,2013-06-14 13:58:00
7:58 AM,47.7,41.2,78,30.13,10.0,South,10.4,-,N/A,,Scattered Clouds,180,2013-06-14 14:58:00
8:58 AM,50.4,41.9,73,30.15,10.0,South,12.7,-,N/A,,Overcast,190,2013-06-14 15:58:00
9:44 AM,57.2,41.0,55,30.14,10.0,SSW,16.1,19.6,N/A,,Light Drizzle,200,2013-06-14 16:44:00
9:54 AM,55.4,41.0,58,30.14,10.0,SSW,13.8,19.6,N/A,,Overcast,210,2013-06-14 16:54:00
9:58 AM,55.4,41.0,58,30.15,10.0,SSW,15.0,-,0.00,,Overcast,200,2013-06-14 16:58:00
10:26 AM,59.0,39.2,48,30.14,10.0,SSW,15.0,-,N/A,,Light Drizzle,210,2013-06-14 17:26:00
10:34 AM,59.0,41.0,51,30.14,10.0,SSW,13.8,-,N/A,,Overcast,210,2013-06-14 17:34:00
10:58 AM,61.0,39.7,46,30.15,10.0,SSW,13.8,21.9,0.00,,Mostly Cloudy,200,2013-06-14 17:58:00
11:10 AM,60.8,39.2,45,30.13,10.0,SW,16.1,-,N/A,,Mostly Cloudy,230,2013-06-14 18:10:00
11:16 AM,62.6,39.2,42,30.14,10.0,SSW,13.8,-,N/A,,Light Drizzle,200,2013-06-14 18:16:00
11:46 AM,62.6,39.2,42,30.13,10.0,WSW,12.7,-,N/A,,Mostly Cloudy,240,2013-06-14 18:46:00
11:54 AM,62.6,37.4,39,30.13,10.0,SSW,12.7,-,N/A,,Mostly Cloudy,200,2013-06-14 18:54:00
11:55 AM,62.6,37.4,39,30.13,10.0,South,13.8,-,N/A,,Mostly Cloudy,190,2013-06-14 18:55:00
11:58 AM,62.4,38.1,41,30.14,10.0,South,9.2,19.6,0.00,,Mostly Cloudy,190,2013-06-14 18:58:00
12:10 PM,64.4,39.2,40,30.13,10.0,SSW,15.0,23.0,N/A,,Light Drizzle,210,2013-06-14 19:10:00
12:31 PM,64.4,39.2,40,30.13,10.0,SSW,13.8,-,N/A,,Overcast,210,2013-06-14 19:31:00
12:50 PM,64.4,37.4,37,30.13,10.0,South,12.7,-,N/A,,Light Drizzle,190,2013-06-14 19:50:00
12:58 PM,64.2,37.9,38,30.14,10.0,SW,12.7,19.6,0.00,,Light Drizzle,220,2013-06-14 19:58:00
1:03 PM,66.2,39.2,37,30.13,10.0,SSW,17.3,20.7,N/A,,Mostly Cloudy,200,2013-06-14 20:03:00
1:07 PM,66.2,37.4,35,30.13,10.0,SSW,15.0,20.7,N/A,,Light Drizzle,210,2013-06-14 20:07:00
1:19 PM,64.4,37.4,37,30.13,10.0,SSW,13.8,18.4,N/A,,Mostly Cloudy,200,2013-06-14 20:19:00
1:37 PM,66.2,37.4,35,30.13,10.0,SW,15.0,20.7,N/A,,Light Drizzle,220,2013-06-14 20:37:00
1:48 PM,64.4,37.4,37,30.13,10.0,SSW,16.1,20.7,N/A,,Overcast,200,2013-06-14 20:48:00
1:58 PM,65.7,37.2,35,30.13,10.0,South,13.8,-,0.00,,Overcast,190,2013-06-14 20:58:00
2:42 PM,66.2,37.4,35,30.12,10.0,SW,13.8,-,N/A,,Overcast,220,2013-06-14 21:42:00
2:58 PM,65.3,37.6,36,30.12,10.0,SSW,9.2,-,N/A,,Overcast,200,2013-06-14 21:58:00
3:58 PM,64.9,36.7,35,30.12,10.0,SSW,10.4,-,N/A,,Overcast,200,2013-06-14 22:58:00
4:58 PM,66.2,36.7,34,30.11,10.0,SSE,5.8,-,N/A,,Overcast,150,2013-06-14 23:58:00
5:58 PM,65.7,36.1,34,30.10,10.0,South,8.1,-,N/A,,Overcast,180,2013-06-15 00:58:00
6:58 PM,66.0,35.8,33,30.09,10.0,South,5.8,-,N/A,,Clear,190,2013-06-15 01:58:00
7:58 PM,63.9,36.5,36,30.07,10.0,ESE,3.5,-,N/A,,Clear,120,2013-06-15 02:58:00
8:58 PM,58.8,39.9,50,30.08,10.0,SE,4.6,-,N/A,,Clear,140,2013-06-15 03:58:00
9:58 PM,55.0,38.7,54,30.07,10.0,SE,5.8,-,N/A,,Clear,140,2013-06-15 04:58:00
10:58 PM,54.1,37.6,54,30.07,10.0,SE,4.6,-,N/A,,Clear,140,2013-06-15 05:58:00
11:58 PM,51.3,37.6,60,30.07,10.0,SSE,2.3,-,N/A,,Clear,150,2013-06-15 06:58:00